Disclaimer

Please do not use the information listed here in-flight or in-navigation, as they are not provided to us by the airports but are provided by volunteers, so they might be outdated.

Search


Regions


Airport information page

Radio informations:
Tower (TWR) - 118.1 MHz
Ground (GND) - 121.9 MHz
Automatic Terminal Information Service (ATIS) - 123.6 MHz
Approach (APP) - 119.1 MHz

Airport informations:
Latitude: 40° 07' 41.10" N
Longitude: 032° 59' 42.30" E
Elevation: 3125 feet - 953 meters
Operating hours: 24 hour operations
Operating agency: Civil government, landing fees and diplomatic clearance may be required
Timezone: UTC+2(+3DT) - Dates notified by NOTAM
Fuel: Jet A1, without icing nhibitor.

115/145 octane gasoline, leaded, MIL-L-5572F (PURPLE)

100/130 MIL Spec, low lead, aviation gasoline (BLUE)

Unknown fuel type or whether there is any fuel.

Runway information:
03R/21L - 12303 x 197 feet< - >3750 x 60 meters
03L/21R - 12303 x 148 feet< - >3750 x 45 meters

Recent METARs:
LTAC 190420Z VRB02KT 6000 FEW040 SCT100 03/01 Q1018 NOSIG RMK RWY21L 11004KT 080V140 RWY03L VRB01KT RWY21R 03002KT
LTAC 190450Z VRB02KT 4000 BR FEW040 02/01 Q1019 BECMG 9999 NSW
LTAC 190520Z VRB02KT 7000 SCT040 03/02 Q1019 NOSIG

Airport on the map: